Time;durP1;ratioP1;P1;durP2;ratioP2;P2;SDS_P1;SDS_P2;PMS_P1;PMS_P2;Temp;Humidity;BMP_temperature;BMP_pressure;BME280_temperature;BME280_humidity;BME280_pressure;Samples;Min_cycle;Max_cycle;Signal;HPM_P1;HPM_P2
2023/02/10 00:00:56;;;;;;;31.67;18.80;;;;;;;-0.22;57.97;97946.44;4949721;28;20406;-69
2023/02/10 00:03:21;;;;;;;33.27;19.57;;;;;;;-0.29;58.82;97953.16;4949688;28;20786;-70
2023/02/10 00:05:47;;;;;;;27.93;17.77;;;;;;;-0.26;58.36;97949.78;4948211;28;20185;-69
2023/02/10 00:08:12;;;;;;;34.03;19.67;;;;;;;-0.24;58.46;97950.69;4949376;28;20190;-69
2023/02/10 00:10:38;;;;;;;33.80;18.90;;;;;;;-0.24;58.06;97955.84;4949293;28;20174;-70
2023/02/10 00:13:03;;;;;;;35.33;19.37;;;;;;;-0.28;58.21;97949.78;4949047;28;20178;-69
2023/02/10 00:15:28;;;;;;;30.27;19.57;;;;;;;-0.28;58.33;97951.47;4949131;28;20189;-68
2023/02/10 00:17:54;;;;;;;38.07;19.30;;;;;;;-0.36;58.72;97953.84;4949025;28;20247;-69
2023/02/10 00:20:19;;;;;;;28.97;18.17;;;;;;;-0.25;58.23;97960.16;4949213;28;20166;-69
2023/02/10 00:22:45;;;;;;;30.60;19.17;;;;;;;-0.27;57.94;97956.66;4949223;28;20189;-69
2023/02/10 00:25:10;;;;;;;34.23;19.90;;;;;;;-0.26;58.04;97950.69;4949231;28;20257;-70
2023/02/10 00:27:35;;;;;;;27.83;19.40;;;;;;;-0.29;58.21;97962.63;4948226;28;20191;-68
2023/02/10 00:30:01;;;;;;;37.27;21.10;;;;;;;-0.32;58.10;97966.00;4949043;28;20396;-71
2023/02/10 00:32:26;;;;;;;32.97;18.60;;;;;;;-0.46;58.59;97968.25;4949042;28;20543;-68
2023/02/10 00:34:52;;;;;;;28.73;19.27;;;;;;;-0.30;58.74;97968.63;4948925;28;20166;-68
2023/02/10 00:37:17;;;;;;;33.87;19.20;;;;;;;-0.23;57.88;97961.06;4948469;28;20265;-69
2023/02/10 00:39:45;;;;;;;31.27;19.77;;;;;;;-0.32;58.13;97971.16;4950052;28;20694;-68
2023/02/10 00:42:10;;;;;;;31.67;18.43;;;;;;;-0.35;58.28;97972.81;4948962;28;20201;-68
2023/02/10 00:44:36;;;;;;;29.80;18.70;;;;;;;-0.32;57.94;97978.91;4948906;28;20410;-68
2023/02/10 00:47:01;;;;;;;30.50;18.47;;;;;;;-0.30;57.91;97974.66;4948373;28;20182;-68
2023/02/10 00:49:27;;;;;;;30.30;19.23;;;;;;;-0.39;58.72;97982.16;4948785;28;20209;-68
2023/02/10 00:51:52;;;;;;;30.63;18.93;;;;;;;-0.45;58.93;97982.91;4948649;28;20175;-67
2023/02/10 00:54:17;;;;;;;27.03;18.13;;;;;;;-0.60;58.84;97987.66;4948708;28;20623;-70
2023/02/10 00:56:44;;;;;;;30.17;18.60;;;;;;;-0.47;58.50;97983.69;4948323;28;20683;-68
2023/02/10 00:59:12;;;;;;;35.47;20.27;;;;;;;-0.57;58.89;97986.84;4948622;28;20194;-68
2023/02/10 01:01:38;;;;;;;33.23;20.27;;;;;;;-0.67;59.24;97971.16;4948799;28;20421;-68
2023/02/10 01:04:04;;;;;;;31.60;20.07;;;;;;;-0.63;58.74;97978.97;4948617;28;20914;-68
2023/02/10 01:06:29;;;;;;;29.83;19.50;;;;;;;-0.59;58.54;97980.78;4948524;28;20258;-69
2023/02/10 01:08:55;;;;;;;30.17;19.00;;;;;;;-0.63;58.83;97977.28;4948407;28;20572;-69
2023/02/10 01:11:20;;;;;;;33.77;19.50;;;;;;;-0.61;58.56;97978.19;4948473;28;20194;-68
2023/02/10 01:13:46;;;;;;;33.93;20.57;;;;;;;-0.72;58.86;97977.03;4948427;28;20212;-68
2023/02/10 01:16:16;;;;;;;30.40;20.13;;;;;;;-0.78;58.93;97982.03;4949013;28;20189;-70
2023/02/10 01:18:42;;;;;;;33.80;19.20;;;;;;;-0.79;59.46;97986.31;4952477;28;20260;-70
2023/02/10 01:21:09;;;;;;;26.80;19.00;;;;;;;-0.78;59.31;97982.91;4952195;28;20402;-68
2023/02/10 01:23:34;;;;;;;30.77;19.77;;;;;;;-0.83;59.19;97992.22;4952385;28;20182;-69
2023/02/10 01:26:01;;;;;;;25.13;17.30;;;;;;;-0.72;59.42;97997.66;4951804;28;20969;-68
2023/02/10 01:28:27;;;;;;;37.43;19.73;;;;;;;-0.77;59.14;97999.25;4952111;28;20205;-69
2023/02/10 01:30:52;;;;;;;27.70;19.47;;;;;;;-0.94;59.99;97996.22;4952090;28;20493;-69
2023/02/10 01:33:18;;;;;;;30.37;19.50;;;;;;;-0.79;59.47;98001.78;4952201;28;20703;-68
2023/02/10 01:35:43;;;;;;;28.70;17.43;;;;;;;-0.82;59.28;98000.84;4952493;28;20180;-68
2023/02/10 01:38:09;;;;;;;34.87;19.00;;;;;;;-0.84;59.12;98007.66;4951538;28;20759;-67
2023/02/10 01:40:34;;;;;;;36.33;19.87;;;;;;;-0.93;59.69;98008.25;4953736;28;20178;-68
2023/02/10 01:43:00;;;;;;;32.57;18.03;;;;;;;-0.91;59.37;98009.19;4952041;28;20170;-68
2023/02/10 01:45:46;;;;;;;32.77;20.23;;;;;;;-0.80;59.01;98000.03;4951868;28;20565;-67
2023/02/10 01:48:12;;;;;;;28.97;18.20;;;;;;;-0.93;59.36;98000.53;4951955;28;20212;-68
2023/02/10 01:50:45;;;;;;;25.63;16.83;;;;;;;-0.90;58.83;98000.59;4952041;28;20472;-67
2023/02/10 01:53:12;;;;;;;27.80;17.57;;;;;;;-0.81;58.75;97998.28;4952130;28;20432;-67
2023/02/10 01:55:41;;;;;;;28.97;18.50;;;;;;;-0.78;58.78;97998.38;4951865;28;20450;-68
2023/02/10 01:58:10;;;;;;;30.70;17.30;;;;;;;-0.92;59.15;97995.44;4951875;28;20524;-68
2023/02/10 02:00:36;;;;;;;32.93;18.67;;;;;;;-0.87;58.20;97995.56;4951942;28;20472;-69
2023/02/10 02:03:03;;;;;;;28.93;17.40;;;;;;;-1.00;58.51;97996.03;4951824;28;21126;-68
2023/02/10 02:05:33;;;;;;;25.20;16.60;;;;;;;-1.09;58.63;98000.13;4951623;28;20825;-68
2023/02/10 02:08:14;;;;;;;29.53;17.57;;;;;;;-0.99;58.66;98001.25;4951307;28;20477;-67
2023/02/10 02:10:50;;;;;;;23.23;15.90;;;;;;;-1.06;58.92;98001.91;4951631;28;20437;-69
2023/02/10 02:13:28;;;;;;;31.80;18.03;;;;;;;-1.07;59.14;98003.59;4951183;28;20417;-68
2023/02/10 02:16:09;;;;;;;24.50;16.70;;;;;;;-0.98;58.37;98004.69;4951256;28;20512;-69
2023/02/10 02:19:12;;;;;;;33.80;18.17;;;;;;;-1.12;59.40;98005.19;4951371;28;20484;-68
2023/02/10 02:22:03;;;;;;;29.97;17.67;;;;;;;-1.30;60.35;97997.81;4950849;28;20817;-70
2023/02/10 02:24:31;;;;;;;26.60;17.30;;;;;;;-1.38;60.65;98001.88;4951361;28;20398;-68
2023/02/10 02:27:15;;;;;;;34.50;20.97;;;;;;;-1.26;60.62;98005.63;4950762;28;20418;-69
2023/02/10 02:29:43;;;;;;;31.60;19.00;;;;;;;-1.20;59.76;98014.41;4950456;28;20414;-69
2023/02/10 02:32:22;;;;;;;32.17;17.67;;;;;;;-1.33;60.25;98002.00;4951412;28;20425;-68
2023/02/10 02:35:26;;;;;;;35.17;18.33;;;;;;;-1.24;59.83;98001.41;4951183;28;20414;-69
2023/02/10 02:37:52;;;;;;;26.33;17.17;;;;;;;-1.32;60.67;97993.47;4950425;28;20552;-68
2023/02/10 02:40:18;;;;;;;29.60;17.67;;;;;;;-1.23;60.08;97985.97;4952541;28;20425;-68
2023/02/10 02:42:44;;;;;;;33.07;19.30;;;;;;;-1.26;59.53;97985.88;4950856;28;20414;-68
2023/02/10 02:45:55;;;;;;;29.60;18.17;;;;;;;-1.30;60.11;97991.78;4950867;28;20174;-68
2023/02/10 02:48:45;;;;;;;29.53;19.03;;;;;;;-1.36;60.06;97981.31;4925238;28;20245;-68
2023/02/10 02:51:28;;;;;;;28.63;17.63;;;;;;;-1.36;60.33;97971.88;4965753;28;20427;-69
2023/02/10 02:53:57;;;;;;;29.90;18.80;;;;;;;-1.46;60.87;97972.47;4950838;28;20410;-68
2023/02/10 02:56:43;;;;;;;38.83;20.57;;;;;;;-1.43;60.25;97972.53;4950287;28;20418;-69
2023/02/10 02:59:13;;;;;;;34.33;20.27;;;;;;;-1.54;60.77;97977.38;4950887;28;20433;-68
2023/02/10 03:01:48;;;;;;;30.90;18.70;;;;;;;-1.66;61.30;97978.72;4950871;28;20436;-69
2023/02/10 03:04:16;;;;;;;30.97;20.17;;;;;;;-1.53;61.47;97993.72;4950617;28;20456;-68
2023/02/10 03:06:41;;;;;;;33.80;21.33;;;;;;;-1.60;61.73;98002.09;4950253;28;20500;-70
2023/02/10 03:09:06;;;;;;;29.07;20.33;;;;;;;-1.59;62.11;97996.09;4950702;28;20437;-71
2023/02/10 03:11:32;;;;;;;34.30;20.70;;;;;;;-1.50;61.31;98004.97;4950790;28;20174;-69
2023/02/10 03:13:57;;;;;;;39.60;19.40;;;;;;;-1.50;61.14;98007.53;4950561;28;20528;-69
2023/02/10 03:16:23;;;;;;;31.73;18.30;;;;;;;-1.43;61.29;98015.44;4950225;28;20170;-69
2023/02/10 03:18:48;;;;;;;34.57;20.00;;;;;;;-1.37;61.10;98010.47;4950214;28;20198;-69
2023/02/10 03:21:13;;;;;;;28.33;18.20;;;;;;;-1.34;60.29;98013.16;4950337;28;20185;-69
2023/02/10 03:23:39;;;;;;;27.30;18.03;;;;;;;-1.51;60.42;98020.38;4950838;28;20177;-69
2023/02/10 03:26:05;;;;;;;29.33;17.67;;;;;;;-1.47;59.92;98035.06;4949957;28;20178;-68
2023/02/10 03:28:30;;;;;;;32.50;18.10;;;;;;;-1.34;60.44;98024.31;4950120;28;20261;-68
2023/02/10 03:30:56;;;;;;;35.20;19.50;;;;;;;-1.45;60.20;98037.69;4949962;28;20237;-68
2023/02/10 03:33:22;;;;;;;30.00;17.77;;;;;;;-1.51;60.33;98040.97;4949918;28;20189;-69
2023/02/10 03:35:49;;;;;;;27.93;18.50;;;;;;;-1.52;59.58;98040.09;4950132;28;20178;-68
2023/02/10 03:38:15;;;;;;;27.30;17.23;;;;;;;-1.57;59.20;98039.06;4949880;28;20560;-70
2023/02/10 03:40:40;;;;;;;24.63;17.40;;;;;;;-1.52;58.62;98037.50;4951433;28;20421;-68
2023/02/10 03:43:05;;;;;;;24.87;17.03;;;;;;;-1.52;58.89;98031.50;4950055;28;20171;-68
2023/02/10 03:45:31;;;;;;;25.27;15.77;;;;;;;-1.56;59.06;98042.50;4950086;28;20167;-68
2023/02/10 03:47:58;;;;;;;33.53;17.93;;;;;;;-1.32;59.31;98038.13;4949897;28;20193;-69
2023/02/10 03:50:24;;;;;;;30.87;17.37;;;;;;;-1.38;58.10;98029.31;4950696;28;20442;-68
2023/02/10 03:52:49;;;;;;;27.77;18.13;;;;;;;-1.50;58.85;98028.13;4952463;28;20430;-68
2023/02/10 03:55:17;;;;;;;31.50;18.70;;;;;;;-1.58;58.81;98029.63;4957502;28;20261;-67
2023/02/10 03:57:43;;;;;;;25.37;16.20;;;;;;;-1.62;58.98;98035.50;4956726;28;20202;-68
2023/02/10 04:00:10;;;;;;;25.70;16.97;;;;;;;-1.64;59.10;98038.84;4956264;28;20733;-69
2023/02/10 04:02:36;;;;;;;29.87;17.00;;;;;;;-1.58;58.36;98039.91;4954691;28;20501;-69
2023/02/10 04:05:01;;;;;;;26.83;16.67;;;;;;;-1.60;59.35;98040.69;4949548;28;20453;-69
2023/02/10 04:07:27;;;;;;;28.80;16.47;;;;;;;-1.61;59.67;98047.53;4949216;28;20502;-69
2023/02/10 04:09:52;;;;;;;25.90;16.63;;;;;;;-1.67;59.80;98046.50;4949532;28;20695;-69
2023/02/10 04:12:17;;;;;;;33.53;19.00;;;;;;;-1.51;60.22;98049.56;4949910;28;20636;-68
2023/02/10 04:14:43;;;;;;;32.87;19.67;;;;;;;-1.58;60.41;98046.78;4949687;28;20170;-68
2023/02/10 04:17:08;;;;;;;24.93;17.60;;;;;;;-1.66;59.24;98045.66;4948752;28;20209;-68
2023/02/10 04:19:34;;;;;;;28.70;18.13;;;;;;;-1.61;59.37;98049.22;4949601;28;20196;-67
2023/02/10 04:21:59;;;;;;;35.90;18.30;;;;;;;-1.55;58.73;98050.28;4949665;28;20226;-66
2023/02/10 04:24:24;;;;;;;25.80;16.30;;;;;;;-1.65;59.63;98055.09;4949121;28;20822;-68
2023/02/10 04:26:50;;;;;;;31.83;18.00;;;;;;;-1.64;58.89;98056.88;4949847;28;20224;-69
2023/02/10 04:29:15;;;;;;;32.60;16.87;;;;;;;-1.74;58.72;98058.28;4949854;28;20248;-67
2023/02/10 04:31:41;;;;;;;27.80;16.93;;;;;;;-1.82;58.67;98060.63;4949733;28;20282;-68
2023/02/10 04:34:06;;;;;;;33.10;17.60;;;;;;;-1.75;57.98;98064.25;4949497;28;20690;-69
2023/02/10 04:36:32;;;;;;;30.50;17.67;;;;;;;-1.62;58.06;98068.97;4949000;28;20179;-69
2023/02/10 04:38:57;;;;;;;27.00;17.97;;;;;;;-1.71;58.91;98071.25;4949134;29;20280;-69
2023/02/10 04:41:23;;;;;;;27.17;14.97;;;;;;;-1.68;58.60;98061.03;4951210;28;20185;-70
2023/02/10 04:43:48;;;;;;;28.00;16.70;;;;;;;-1.78;58.41;98059.00;4950173;28;20299;-69
2023/02/10 04:46:13;;;;;;;25.90;16.80;;;;;;;-1.90;58.19;98053.50;4949577;28;20611;-69
2023/02/10 04:48:39;;;;;;;26.23;17.00;;;;;;;-1.88;57.90;98054.41;4949917;28;20201;-69
2023/02/10 04:51:08;;;;;;;30.50;18.27;;;;;;;-2.00;58.94;98066.06;4948783;28;20201;-69
2023/02/10 04:53:34;;;;;;;21.77;16.00;;;;;;;-2.01;58.88;98063.44;4949191;28;20177;-69
2023/02/10 04:55:59;;;;;;;30.80;18.70;;;;;;;-1.93;59.48;98062.84;4949052;28;20418;-67
2023/02/10 04:58:24;;;;;;;25.63;16.00;;;;;;;-1.87;57.94;98056.16;4948433;28;20869;-66
2023/02/10 05:00:50;;;;;;;25.87;17.40;;;;;;;-1.90;58.99;98059.50;4948794;28;20321;-68
2023/02/10 05:03:15;;;;;;;29.70;18.87;;;;;;;-1.91;58.32;98062.91;4949474;28;20175;-69
2023/02/10 05:05:41;;;;;;;29.47;16.87;;;;;;;-1.93;58.98;98067.13;4950163;28;20268;-70
2023/02/10 05:08:06;;;;;;;36.70;18.57;;;;;;;-1.90;58.72;98062.06;4949443;28;20534;-69
2023/02/10 05:10:32;;;;;;;28.87;17.90;;;;;;;-1.94;58.63;98057.66;4948717;28;20182;-69
2023/02/10 05:12:58;;;;;;;23.70;16.57;;;;;;;-1.78;58.74;98064.16;4948669;28;20182;-68
2023/02/10 05:15:23;;;;;;;31.70;18.60;;;;;;;-2.27;59.68;98066.00;4948725;28;20170;-69
2023/02/10 05:17:48;;;;;;;28.33;17.97;;;;;;;-2.11;60.32;98076.81;4948264;28;20228;-70
2023/02/10 05:20:14;;;;;;;25.67;15.87;;;;;;;-2.12;59.56;98083.66;4948885;28;20178;-69
2023/02/10 05:22:39;;;;;;;31.03;17.60;;;;;;;-2.22;59.79;98072.22;4948643;28;20178;-68
2023/02/10 05:25:07;;;;;;;31.27;17.23;;;;;;;-2.08;59.45;98072.63;4948555;28;20177;-70
2023/02/10 05:27:34;;;;;;;31.03;18.00;;;;;;;-1.93;58.77;98069.72;4948056;28;20198;-69
2023/02/10 05:30:00;;;;;;;28.70;18.57;;;;;;;-1.90;58.84;98077.50;4948238;28;20748;-68
2023/02/10 05:32:25;;;;;;;31.73;16.70;;;;;;;-2.01;59.79;98077.19;4948514;28;20444;-68
2023/02/10 05:34:51;;;;;;;29.60;16.00;;;;;;;-1.89;59.70;98080.94;4948889;28;20640;-69
2023/02/10 05:37:16;;;;;;;42.90;20.77;;;;;;;-1.96;59.15;98079.88;4948642;28;20206;-68
2023/02/10 05:39:42;;;;;;;28.20;18.30;;;;;;;-1.94;60.23;98092.00;4948853;28;20547;-69
2023/02/10 05:42:08;;;;;;;33.67;17.80;;;;;;;-1.93;59.11;98098.88;4948751;28;20178;-69
2023/02/10 05:44:33;;;;;;;27.87;15.80;;;;;;;-1.89;59.29;98102.44;4945991;28;20269;-69
2023/02/10 05:46:58;;;;;;;31.87;17.17;;;;;;;-2.00;60.00;98104.66;4943145;28;20182;-70
2023/02/10 05:49:24;;;;;;;28.93;17.67;;;;;;;-2.02;59.78;98103.72;4946787;28;20334;-70
2023/02/10 05:51:50;;;;;;;28.60;17.23;;;;;;;-2.09;59.80;98109.47;4948692;28;20644;-68
2023/02/10 05:54:15;;;;;;;23.13;15.53;;;;;;;-2.07;59.77;98106.97;4948654;28;20182;-69
2023/02/10 05:56:41;;;;;;;30.40;16.90;;;;;;;-2.08;59.23;98108.66;4948261;28;20198;-69
2023/02/10 05:59:06;;;;;;;28.27;17.63;;;;;;;-2.02;59.87;98108.84;4948579;28;20274;-68
2023/02/10 06:01:32;;;;;;;28.03;18.03;;;;;;;-2.06;59.50;98108.72;4948570;28;20198;-69
2023/02/10 06:03:57;;;;;;;31.77;18.60;;;;;;;-2.09;59.34;98109.47;4950477;28;20543;-68
2023/02/10 06:06:23;;;;;;;35.17;18.27;;;;;;;-2.04;59.41;98105.34;4952453;28;20599;-70
2023/02/10 06:08:48;;;;;;;36.53;19.27;;;;;;;-1.98;59.21;98109.84;4951923;28;20551;-68
2023/02/10 06:11:14;;;;;;;43.63;18.50;;;;;;;-1.93;59.42;98108.31;4951892;28;20229;-69
2023/02/10 06:13:40;;;;;;;30.80;18.80;;;;;;;-1.89;58.13;98111.81;4952205;28;20182;-69
2023/02/10 06:16:06;;;;;;;31.00;18.30;;;;;;;-1.97;58.12;98111.59;4937352;28;20194;-69
2023/02/10 06:18:31;;;;;;;33.67;19.13;;;;;;;-1.84;58.60;98116.31;4935720;28;20472;-68
2023/02/10 06:20:57;;;;;;;36.17;18.47;;;;;;;-1.92;58.74;98128.91;4951394;28;20582;-69
2023/02/10 06:23:24;;;;;;;35.70;18.57;;;;;;;-2.03;58.51;98130.28;4951032;28;20193;-70
2023/02/10 06:25:54;;;;;;;41.83;18.30;;;;;;;-1.89;58.29;98124.69;4950752;28;21066;-70
2023/02/10 06:28:21;;;;;;;33.53;18.27;;;;;;;-1.84;59.03;98129.19;4950680;28;20941;-70
2023/02/10 06:30:46;;;;;;;36.73;19.87;;;;;;;-1.76;58.91;98127.72;4951170;28;20444;-69
2023/02/10 06:33:12;;;;;;;31.37;19.17;;;;;;;-2.00;59.64;98132.06;4951222;28;20418;-70
2023/02/10 06:35:37;;;;;;;32.30;18.23;;;;;;;-2.05;59.76;98142.22;4950958;28;20171;-68
2023/02/10 06:38:02;;;;;;;31.57;19.80;;;;;;;-2.04;59.46;98140.50;4949360;28;20291;-70
2023/02/10 06:40:28;;;;;;;32.40;21.10;;;;;;;-1.93;60.04;98141.75;4948296;28;21041;-69
2023/02/10 06:42:53;;;;;;;33.67;19.47;;;;;;;-1.87;58.57;98141.06;4946824;28;20174;-69
2023/02/10 06:45:19;;;;;;;36.03;19.43;;;;;;;-1.88;59.99;98147.03;4946741;28;20201;-69
2023/02/10 06:47:44;;;;;;;37.43;19.33;;;;;;;-1.94;59.58;98151.16;4946704;28;20194;-69
2023/02/10 06:50:12;;;;;;;35.73;18.70;;;;;;;-1.82;58.95;98152.38;4947450;28;20547;-69
2023/02/10 06:52:37;;;;;;;36.17;22.27;;;;;;;-1.55;58.37;98149.84;4948753;28;20198;-69
2023/02/10 06:55:07;;;;;;;34.37;20.83;;;;;;;-1.18;57.13;98148.38;4943373;28;20430;-70
2023/02/10 06:57:35;;;;;;;29.10;18.87;;;;;;;-0.93;56.32;98148.28;4948395;28;20711;-68
2023/02/10 07:00:02;;;;;;;25.47;19.30;;;;;;;-0.62;55.43;98146.59;4945806;28;20446;-69
2023/02/10 07:02:29;;;;;;;35.30;18.60;;;;;;;-0.24;54.28;98150.25;4945561;29;20480;-69
2023/02/10 07:04:54;;;;;;;29.97;17.90;;;;;;;0.17;52.25;98144.41;4947923;28;21009;-71
2023/02/10 07:07:20;;;;;;;29.73;18.40;;;;;;;0.58;51.86;98144.53;4948204;28;20569;-68
2023/02/10 07:09:45;;;;;;;29.50;18.30;;;;;;;0.80;50.23;98146.78;4944310;28;20178;-71
2023/02/10 07:12:10;;;;;;;27.37;18.70;;;;;;;1.21;49.53;98153.69;4949012;28;20186;-68
2023/02/10 07:14:38;;;;;;;29.77;18.70;;;;;;;1.65;48.37;98145.94;4946860;28;20273;-68
2023/02/10 07:17:03;;;;;;;30.57;19.73;;;;;;;2.07;46.72;98147.56;4947122;28;20208;-68
2023/02/10 07:19:30;;;;;;;28.80;18.17;;;;;;;2.61;45.63;98148.47;4947308;28;20528;-68
2023/02/10 07:21:56;;;;;;;30.93;19.33;;;;;;;3.11;44.18;98146.63;4946672;28;20236;-68
2023/02/10 07:24:21;;;;;;;30.63;18.97;;;;;;;3.02;44.70;98148.22;4946965;28;20841;-69
2023/02/10 07:26:46;;;;;;;55.63;22.43;;;;;;;3.57;43.17;98148.94;4946916;28;20257;-69
2023/02/10 07:29:12;;;;;;;27.70;20.00;;;;;;;3.83;42.35;98149.25;4947191;28;20198;-68
2023/02/10 07:31:37;;;;;;;39.20;24.90;;;;;;;4.44;40.48;98146.34;4947125;28;20177;-68
2023/02/10 07:34:03;;;;;;;36.33;23.10;;;;;;;4.37;40.25;98150.63;4947770;28;20269;-69
2023/02/10 07:36:28;;;;;;;31.40;21.50;;;;;;;5.20;38.92;98163.38;4946929;28;20193;-69
2023/02/10 07:38:54;;;;;;;35.00;20.87;;;;;;;5.14;39.07;98160.72;4933903;29;20206;-69
2023/02/10 07:41:20;;;;;;;30.23;20.70;;;;;;;5.34;38.59;98173.84;4947082;28;20194;-69
2023/02/10 07:43:45;;;;;;;36.10;23.07;;;;;;;5.49;38.28;98169.59;4947783;28;20190;-69
2023/02/10 07:46:10;;;;;;;46.43;24.67;;;;;;;5.60;37.65;98166.16;4946818;28;20190;-69
2023/02/10 07:48:36;;;;;;;47.90;23.13;;;;;;;5.80;37.40;98167.09;4947512;28;20234;-69
2023/02/10 07:51:02;;;;;;;34.50;21.87;;;;;;;6.08;36.99;98165.47;4950193;28;20177;-69
2023/02/10 07:53:27;;;;;;;32.70;23.63;;;;;;;6.85;35.08;98159.44;4941368;28;20182;-69
2023/02/10 07:55:53;;;;;;;34.07;23.30;;;;;;;6.82;34.65;98162.94;4940301;28;20517;-69
2023/02/10 07:58:18;;;;;;;35.73;24.00;;;;;;;7.04;34.35;98165.50;4941010;28;20320;-69
2023/02/10 08:00:44;;;;;;;31.90;22.87;;;;;;;7.64;34.17;98158.41;4948512;28;20240;-69
2023/02/10 08:03:12;;;;;;;32.67;23.27;;;;;;;7.75;33.83;98163.59;4949663;28;20198;-69
2023/02/10 08:05:38;;;;;;;29.57;24.17;;;;;;;8.04;32.94;98159.06;4949240;28;20241;-70
2023/02/10 08:08:03;;;;;;;33.90;22.93;;;;;;;8.43;32.41;98157.13;4944700;28;21082;-70
2023/02/10 08:10:29;;;;;;;33.93;25.87;;;;;;;8.69;31.58;98154.31;4947942;28;20228;-68
2023/02/10 08:12:54;;;;;;;32.87;24.53;;;;;;;8.75;32.41;98149.91;4946142;28;20240;-70
2023/02/10 08:15:22;;;;;;;34.37;25.53;;;;;;;9.31;31.81;98153.72;4943103;28;20634;-69
2023/02/10 08:17:47;;;;;;;30.67;24.10;;;;;;;9.47;31.43;98146.53;4946592;28;20206;-69
2023/02/10 08:20:13;;;;;;;30.50;25.90;;;;;;;10.05;30.28;98153.69;4948069;28;20479;-68
2023/02/10 08:22:39;;;;;;;34.30;26.50;;;;;;;10.02;30.63;98150.25;4948214;29;20186;-68
2023/02/10 08:25:04;;;;;;;38.00;26.23;;;;;;;10.42;30.39;98147.94;4948066;28;20273;-69
2023/02/10 08:27:30;;;;;;;46.70;27.10;;;;;;;10.11;30.44;98152.72;4951124;28;20262;-71
2023/02/10 08:29:55;;;;;;;42.60;26.13;;;;;;;10.41;30.29;98158.47;4945874;28;20197;-70
2023/02/10 08:32:21;;;;;;;41.93;28.73;;;;;;;10.22;30.09;98161.31;4955168;28;20217;-70
2023/02/10 08:34:51;;;;;;;32.50;25.30;;;;;;;10.44;29.98;98161.91;4955244;28;20229;-70
2023/02/10 08:37:17;;;;;;;34.97;25.80;;;;;;;10.63;29.42;98162.50;4948661;28;20467;-71
2023/02/10 08:39:43;;;;;;;32.67;24.43;;;;;;;10.80;29.57;98160.47;4956828;28;20469;-71
2023/02/10 08:42:09;;;;;;;41.43;27.30;;;;;;;10.86;29.52;98158.63;4956731;28;21490;-70
2023/02/10 08:44:34;;;;;;;33.17;25.27;;;;;;;11.24;28.65;98155.31;4948298;28;20182;-69
2023/02/10 08:47:00;;;;;;;35.87;25.90;;;;;;;11.30;29.10;98147.31;4945441;28;20191;-68
2023/02/10 08:49:25;;;;;;;38.87;26.67;;;;;;;11.63;28.57;98150.19;4948487;28;20245;-68
2023/02/10 08:51:55;;;;;;;38.70;25.03;;;;;;;11.31;29.34;98150.81;4948020;28;20276;-69
2023/02/10 08:54:21;;;;;;;33.87;24.43;;;;;;;11.15;29.49;98151.09;4946477;28;20208;-68
2023/02/10 08:56:47;;;;;;;33.47;24.10;;;;;;;11.20;29.49;98151.03;4946156;28;20453;-69
2023/02/10 08:59:13;;;;;;;38.70;25.40;;;;;;;11.16;29.59;98147.56;4947532;28;20846;-68
2023/02/10 09:01:38;;;;;;;31.77;25.40;;;;;;;10.39;30.79;98150.59;4945366;28;20433;-70
2023/02/10 09:04:04;;;;;;;31.37;23.67;;;;;;;9.79;32.64;98158.41;4962026;28;21034;-72
2023/02/10 09:06:40;;;;;;;32.03;23.93;;;;;;;9.69;32.19;98162.91;4944687;28;20192;-68
2023/02/10 09:09:26;;;;;;;34.37;26.20;;;;;;;9.62;32.26;98161.25;4945709;28;20243;-72
2023/02/10 09:11:54;;;;;;;36.03;25.40;;;;;;;9.46;32.94;98156.16;4946105;28;20890;-70
2023/02/10 09:14:20;;;;;;;35.27;22.77;;;;;;;8.60;33.97;98167.47;4947015;28;20444;-69
2023/02/10 09:16:45;;;;;;;38.60;25.37;;;;;;;9.17;33.80;98160.84;4944785;28;21123;-69
2023/02/10 09:19:11;;;;;;;29.80;22.63;;;;;;;9.79;32.84;98156.66;4945833;28;20293;-68
2023/02/10 09:21:37;;;;;;;34.57;23.00;;;;;;;9.26;33.54;98165.97;4944017;28;20258;-70
2023/02/10 09:24:02;;;;;;;36.63;24.20;;;;;;;9.56;33.71;98167.41;4946568;28;20215;-69
2023/02/10 09:26:28;;;;;;;36.00;25.70;;;;;;;9.39;34.34;98167.59;4943710;28;20431;-69
2023/02/10 09:28:54;;;;;;;34.60;23.97;;;;;;;9.15;34.77;98167.88;4945026;28;20209;-68
2023/02/10 09:31:19;;;;;;;28.93;23.30;;;;;;;9.40;34.66;98174.59;4945482;29;20190;-68
2023/02/10 09:33:45;;;;;;;33.87;23.57;;;;;;;9.66;34.21;98168.16;4946480;28;20712;-68
2023/02/10 09:36:15;;;;;;;30.17;23.23;;;;;;;9.77;34.09;98170.66;4947096;28;20214;-69
2023/02/10 09:38:40;;;;;;;34.30;24.17;;;;;;;9.77;33.75;98175.91;4948987;28;20213;-68
2023/02/10 09:41:31;;;;;;;29.13;22.60;;;;;;;9.56;33.84;98175.25;4950629;28;20434;-67
2023/02/10 09:44:22;;;;;;;30.10;22.63;;;;;;;9.57;33.65;98182.25;4950670;28;20178;-66
2023/02/10 09:46:50;;;;;;;35.90;24.97;;;;;;;9.73;33.99;98172.44;4944812;29;20425;-69
2023/02/10 09:49:41;;;;;;;35.03;23.80;;;;;;;9.60;34.25;98174.34;4950092;28;20519;-66
2023/02/10 09:52:18;;;;;;;32.17;23.87;;;;;;;9.78;34.26;98175.00;4948652;28;20429;-67
2023/02/10 09:54:45;;;;;;;40.37;26.40;;;;;;;9.77;33.85;98178.53;4948809;28;20417;-70
2023/02/10 09:57:16;;;;;;;57.50;27.10;;;;;;;10.00;33.80;98175.63;4949809;28;20468;-67
2023/02/10 09:59:43;;;;;;;131.17;34.20;;;;;;;9.82;33.65;98174.94;4944878;28;20795;-69
2023/02/10 10:02:24;;;;;;;43.03;24.93;;;;;;;9.88;34.30;98182.75;4948877;28;20430;-68
2023/02/10 10:04:50;;;;;;;47.00;27.43;;;;;;;9.99;33.94;98179.97;4942913;28;20441;-67
2023/02/10 10:07:23;;;;;;;38.70;25.20;;;;;;;10.03;34.32;98175.56;4949405;28;20560;-68
2023/02/10 10:10:02;;;;;;;37.13;25.07;;;;;;;10.12;33.82;98173.69;4948782;28;20909;-67
2023/02/10 10:12:28;;;;;;;33.23;24.90;;;;;;;10.19;34.40;98177.09;4949985;28;20435;-68
2023/02/10 10:14:54;;;;;;;41.27;24.63;;;;;;;10.28;33.85;98174.38;4949144;28;20434;-67
2023/02/10 10:17:28;;;;;;;40.93;26.77;;;;;;;10.34;34.69;98169.03;4949434;28;20470;-66
2023/02/10 10:20:18;;;;;;;36.40;27.40;;;;;;;10.30;34.16;98172.63;4949741;29;20190;-68
2023/02/10 10:23:02;;;;;;;47.67;27.00;;;;;;;10.13;34.56;98175.44;4945548;29;20417;-68
2023/02/10 10:25:46;;;;;;;34.40;25.30;;;;;;;10.06;35.09;98168.56;4949876;28;20430;-68
2023/02/10 10:28:27;;;;;;;50.77;26.27;;;;;;;9.48;36.37;98172.75;4949841;28;20480;-68
2023/02/10 10:30:53;;;;;;;32.37;24.97;;;;;;;9.71;35.68;98169.00;4948179;28;20846;-67
2023/02/10 10:33:23;;;;;;;32.93;25.77;;;;;;;9.79;35.58;98168.91;4949094;28;20448;-70
2023/02/10 10:35:50;;;;;;;33.43;23.73;;;;;;;9.49;36.48;98166.59;4949144;28;20233;-70
2023/02/10 10:38:21;;;;;;;40.87;24.70;;;;;;;9.76;45.19;98172.44;4949080;29;20473;-68
2023/02/10 10:40:52;;;;;;;38.83;22.57;;;;;;;10.52;37.40;98174.91;4948215;28;20421;-70
2023/02/10 10:43:27;;;;;;;45.00;25.30;;;;;;;10.22;35.29;98177.06;4947378;29;20485;-70
2023/02/10 10:46:12;;;;;;;65.60;28.17;;;;;;;10.43;34.59;98172.44;4944322;29;20441;-71
2023/02/10 10:48:41;;;;;;;48.67;26.03;;;;;;;10.46;34.17;98162.72;4949794;28;20449;-70
2023/02/10 10:51:08;;;;;;;40.57;26.37;;;;;;;10.52;33.88;98164.41;4947467;28;20430;-70
2023/02/10 10:53:39;;;;;;;37.43;24.83;;;;;;;10.56;33.76;98160.88;4948685;28;20442;-69
2023/02/10 10:56:12;;;;;;;28.97;23.30;;;;;;;10.43;34.16;98154.06;4942824;28;20933;-69
2023/02/10 10:58:42;;;;;;;34.80;26.33;;;;;;;10.59;33.48;98150.31;4950599;28;20469;-69
2023/02/10 11:01:08;;;;;;;27.40;21.53;;;;;;;10.56;33.10;98145.13;4948824;28;20441;-69
2023/02/10 11:03:34;;;;;;;30.40;23.00;;;;;;;10.00;34.28;98149.41;4950292;28;20507;-69
2023/02/10 11:06:06;;;;;;;37.63;24.70;;;;;;;10.43;34.48;98138.31;4949718;28;20182;-68
2023/02/10 11:08:45;;;;;;;30.23;24.10;;;;;;;10.49;33.54;98131.22;4950091;28;20986;-69
2023/02/10 11:11:15;;;;;;;32.77;23.07;;;;;;;10.46;33.77;98135.63;4950626;28;20422;-69
2023/02/10 11:13:51;;;;;;;32.63;24.57;;;;;;;10.33;33.45;98127.94;4950700;28;20418;-69
2023/02/10 11:16:18;;;;;;;32.97;23.53;;;;;;;10.45;33.26;98131.28;4948771;28;20524;-69
2023/02/10 11:18:57;;;;;;;35.67;25.70;;;;;;;10.50;34.07;98124.19;4950778;28;20855;-69
2023/02/10 11:21:37;;;;;;;34.27;25.40;;;;;;;10.43;33.07;98122.56;4950974;28;20425;-68
2023/02/10 11:24:03;;;;;;;33.33;24.50;;;;;;;10.46;32.43;98115.50;4950108;28;20919;-69